createdAt,value
2019-04-23T00:00:26.463Z,39.10
2019-04-23T00:02:58.808Z,39.04
2019-04-23T00:05:41.833Z,39.08
2019-04-23T00:08:09.706Z,38.73
2019-04-23T00:10:38.854Z,38.86
2019-04-23T00:13:05.672Z,39.30
2019-04-23T00:16:08.504Z,39.59
2019-04-23T00:21:13.745Z,39.46
2019-04-23T00:23:44.635Z,39.83
2019-04-23T00:26:16.262Z,39.84
2019-04-23T00:28:50.758Z,39.79
2019-04-23T00:31:18.362Z,40.02
2019-04-23T00:33:44.818Z,39.76
2019-04-23T00:36:23.045Z,39.69
2019-04-23T00:38:59.255Z,40.11
2019-04-23T00:41:16.430Z,39.93
2019-04-23T00:43:54.549Z,40.19
2019-04-23T00:46:26.383Z,40.11
2019-04-23T00:48:57.758Z,40.14
2019-04-23T00:51:23.880Z,40.30
2019-04-23T00:53:56.828Z,40.35
2019-04-23T00:59:02.733Z,40.96
2019-04-23T01:04:23.108Z,40.93
2019-04-23T01:06:44.617Z,41.15
2019-04-23T01:09:10.459Z,41.32
2019-04-23T01:11:46.589Z,41.32
2019-04-23T01:14:13.414Z,41.59
2019-04-23T01:17:06.109Z,41.87
2019-04-23T01:21:47.521Z,42.27
2019-04-23T01:24:41.903Z,42.16
2019-04-23T01:32:42.490Z,42.47
2019-04-23T01:35:17.202Z,42.48
2019-04-23T01:37:58.194Z,43.00
2019-04-23T01:40:19.196Z,43.08
2019-04-23T01:47:54.839Z,42.92
2019-04-23T01:50:32.711Z,42.93
2019-04-23T01:53:03.957Z,43.09
2019-04-23T02:00:47.706Z,43.73
2019-04-23T02:05:42.889Z,44.01
2019-04-23T02:08:08.362Z,43.83
2019-04-23T02:13:16.356Z,44.28
2019-04-23T02:15:45.945Z,44.32
2019-04-23T02:18:17.964Z,44.40
2019-04-23T02:20:55.931Z,44.47
2019-04-23T02:26:04.789Z,44.71
2019-04-23T02:31:40.377Z,44.77
2019-04-23T02:33:53.522Z,44.62
2019-04-23T02:41:34.646Z,45.34
2019-04-23T02:43:59.551Z,45.49
2019-04-23T02:46:33.001Z,45.11
2019-04-23T02:48:59.858Z,45.08
2019-04-23T02:51:27.234Z,45.49
2019-04-23T02:54:04.012Z,45.76
2019-04-23T02:56:45.322Z,46.21
2019-04-23T03:06:38.470Z,46.21
2019-04-23T03:10:15.401Z,46.38
2019-04-23T03:11:41.829Z,46.54
2019-04-23T03:14:18.588Z,46.63
2019-04-23T03:34:21.025Z,47.41
2019-04-23T03:35:09.773Z,47.82
2019-04-23T03:37:39.662Z,47.75
2019-04-23T03:40:07.922Z,47.95
2019-04-23T03:45:29.878Z,47.65
2019-04-23T03:47:52.517Z,47.49
2019-04-23T03:50:35.383Z,47.69
2019-04-23T03:52:50.634Z,47.86
2019-04-23T03:57:52.741Z,48.51
2019-04-23T04:00:35.235Z,48.49
2019-04-23T04:03:50.235Z,48.40
2019-04-23T04:08:13.342Z,48.60
2019-04-23T04:10:36.039Z,48.73
2019-04-23T04:13:08.718Z,48.74
2019-04-23T04:15:53.408Z,48.83
2019-04-23T04:18:28.653Z,48.86
2019-04-23T04:20:53.861Z,48.98
2019-04-23T04:23:22.510Z,49.05
2019-04-23T04:25:53.510Z,49.05
2019-04-23T04:28:19.521Z,49.35
2019-04-23T04:36:13.126Z,49.94
2019-04-23T04:38:36.690Z,50.18
2019-04-23T04:41:04.266Z,49.94
2019-04-23T04:43:32.119Z,50.25
2019-04-23T04:48:33.303Z,50.58
2019-04-23T04:51:11.421Z,50.70
2019-04-23T04:56:20.955Z,50.81
2019-04-23T04:59:09.344Z,50.92
2019-04-23T05:03:29.706Z,50.87
2019-04-23T05:08:48.183Z,51.05
2019-04-23T05:11:21.504Z,50.89
2019-04-23T05:13:56.770Z,51.07
2019-04-23T05:16:16.117Z,51.31
2019-04-23T05:18:55.239Z,51.25
2019-04-23T05:21:33.153Z,51.08
2019-04-23T05:24:51.075Z,50.92
2019-04-23T05:26:27.198Z,51.31
2019-04-23T05:31:29.635Z,50.88
2019-04-23T05:34:05.952Z,50.47
2019-04-23T05:39:19.219Z,50.44
2019-04-23T05:41:41.701Z,50.55
2019-04-23T05:44:15.695Z,50.62
2019-04-23T05:46:59.915Z,50.42
2019-04-23T05:56:53.499Z,47.12
2019-04-23T05:59:24.699Z,41.82
2019-04-23T06:01:58.699Z,39.87
2019-04-23T06:04:32.462Z,40.72
2019-04-23T06:07:15.116Z,39.75
2019-04-23T06:09:31.293Z,38.21
2019-04-23T06:14:40.549Z,38.53
2019-04-23T06:19:42.490Z,38.52
2019-04-23T06:24:57.921Z,37.08
2019-04-23T06:27:24.364Z,34.57
2019-04-23T06:29:43.227Z,35.24
2019-04-23T06:32:22.744Z,37.12
2019-04-23T06:34:47.976Z,35.33
2019-04-23T06:37:28.391Z,37.70
2019-04-23T06:39:48.366Z,36.69
2019-04-23T06:42:23.110Z,37.23
2019-04-23T06:47:24.858Z,42.70
2019-04-23T06:49:55.343Z,45.47
2019-04-23T06:52:30.109Z,46.74
2019-04-23T06:57:26.952Z,46.73
2019-04-23T07:00:06.577Z,46.82
2019-04-23T07:02:42.133Z,46.62
2019-04-23T07:05:14.592Z,46.35
2019-04-23T07:10:14.758Z,46.23
2019-04-23T07:12:41.462Z,46.04
2019-04-23T07:17:39.497Z,46.17
2019-04-23T07:22:50.611Z,45.41
2019-04-23T07:25:17.785Z,46.10
2019-04-23T07:27:49.360Z,45.41
2019-04-23T07:30:31.534Z,44.97
2019-04-23T07:35:38.263Z,44.34
2019-04-23T07:38:01.798Z,44.51
2019-04-23T07:40:31.248Z,44.68
2019-04-23T07:43:08.351Z,44.46
2019-04-23T07:46:12.301Z,44.28
2019-04-23T07:48:37.024Z,43.60
2019-04-23T07:51:31.549Z,43.71
2019-04-23T07:53:48.336Z,43.21
2019-04-23T07:56:13.135Z,42.81
2019-04-23T07:58:39.288Z,42.95
2019-04-23T08:01:14.215Z,42.60
2019-04-23T08:03:48.377Z,42.98
2019-04-23T08:06:16.535Z,42.39
2019-04-23T08:08:50.563Z,42.03
2019-04-23T08:13:58.706Z,42.16
2019-04-23T08:24:43.414Z,41.73
2019-04-23T08:29:50.878Z,41.49
2019-04-23T08:32:18.653Z,41.39
2019-04-23T08:34:56.420Z,42.21
2019-04-23T08:37:26.921Z,41.22
2019-04-23T08:42:46.887Z,40.61
2019-04-23T08:45:28.675Z,41.41
2019-04-23T08:48:01.221Z,40.86
2019-04-23T08:50:27.449Z,40.72
2019-04-23T08:53:15.003Z,40.90
2019-04-23T08:55:34.885Z,40.57
2019-04-23T08:58:02.224Z,40.48
2019-04-23T09:00:33.838Z,40.41
2019-04-23T09:03:06.234Z,40.19
2019-04-23T09:08:15.110Z,39.69
2019-04-23T09:10:40.961Z,39.90
2019-04-23T09:13:33.354Z,39.93
2019-04-23T09:15:45.040Z,39.08
2019-04-23T09:18:16.431Z,40.08
2019-04-23T09:20:35.885Z,39.37
2019-04-23T09:23:23.802Z,39.12
2019-04-23T09:30:57.820Z,38.27
2019-04-23T09:33:46.829Z,38.65
2019-04-23T09:36:51.562Z,38.42
2019-04-23T09:42:31.888Z,38.27
2019-04-23T09:45:23.318Z,38.12
2019-04-23T09:48:01.541Z,38.60
2019-04-23T09:50:46.836Z,38.68
2019-04-23T09:55:38.826Z,37.46
2019-04-23T10:00:59.092Z,38.14
2019-04-23T10:03:04.863Z,37.08
2019-04-23T10:05:33.549Z,37.03
2019-04-23T10:08:03.086Z,37.55
2019-04-23T10:10:28.149Z,38.26
2019-04-23T10:12:58.111Z,36.73
2019-04-23T10:15:36.220Z,38.03
2019-04-23T10:18:02.492Z,36.83
2019-04-23T10:20:31.837Z,36.74
2019-04-23T10:23:02.247Z,36.77
2019-04-23T10:25:31.996Z,36.57
2019-04-23T10:28:06.714Z,36.84
2019-04-23T10:30:36.473Z,36.50
2019-04-23T10:33:07.520Z,36.38
2019-04-23T10:35:46.105Z,36.08
2019-04-23T10:38:14.442Z,36.02
2019-04-23T10:40:45.901Z,36.34
2019-04-23T10:43:12.993Z,36.05
2019-04-23T10:46:13.635Z,35.99
2019-04-23T10:49:31.712Z,35.95
2019-04-23T10:52:04.908Z,35.90
2019-04-23T10:54:34.280Z,35.48
2019-04-23T10:56:59.056Z,35.96
2019-04-23T10:59:40.396Z,35.76
2019-04-23T11:02:29.295Z,35.84
2019-04-23T11:10:03.669Z,35.42
2019-04-23T11:20:31.426Z,35.12
2019-04-23T11:22:58.985Z,34.98
2019-04-23T11:25:32.991Z,34.96
2019-04-23T11:28:03.065Z,35.04
2019-04-23T11:30:41.172Z,35.20
2019-04-23T11:33:09.112Z,34.80
2019-04-23T11:38:35.496Z,34.80
2019-04-23T11:41:11.749Z,34.73
2019-04-23T11:45:51.210Z,34.86
2019-04-23T11:48:33.296Z,34.83
2019-04-23T11:53:23.634Z,34.52
2019-04-23T11:56:02.641Z,34.37
2019-04-23T12:03:58.710Z,34.31
2019-04-23T12:06:36.657Z,34.25
2019-04-23T12:09:25.628Z,33.77
2019-04-23T12:12:04.183Z,33.77
2019-04-23T12:17:13.006Z,34.03
2019-04-23T12:24:56.882Z,34.14
2019-04-23T12:27:06.145Z,34.93
2019-04-23T12:40:15.686Z,34.05
2019-04-23T12:55:26.046Z,34.28
2019-04-23T13:00:25.693Z,35.48
2019-04-23T13:02:58.889Z,34.22
2019-04-23T13:08:00.535Z,34.99
2019-04-23T13:10:35.497Z,34.00
2019-04-23T13:13:11.286Z,33.91
2019-04-23T13:15:37.364Z,35.01
2019-04-23T13:18:03.023Z,34.68
2019-04-23T13:20:33.874Z,33.95
2019-04-23T13:23:11.812Z,34.41
2019-04-23T13:28:21.102Z,34.13
2019-04-23T13:33:35.127Z,34.50
2019-04-23T13:36:18.879Z,33.92
2019-04-23T13:43:43.734Z,34.40
2019-04-23T13:48:31.492Z,34.37
2019-04-23T13:51:19.493Z,34.66
2019-04-23T13:56:11.265Z,34.09
2019-04-23T13:58:44.889Z,34.55
2019-04-23T14:01:26.293Z,34.60
2019-04-23T14:03:50.487Z,34.26
2019-04-23T14:06:27.604Z,35.08
2019-04-23T14:08:55.410Z,35.04
2019-04-23T14:11:23.207Z,35.01
2019-04-23T14:14:08.544Z,34.68
2019-04-23T14:16:28.657Z,34.56
2019-04-23T14:18:58.438Z,34.28
2019-04-23T14:21:24.812Z,35.07
2019-04-23T14:26:29.645Z,34.34
2019-04-23T14:28:51.149Z,34.12
2019-04-23T14:31:42.920Z,33.97
2019-04-23T14:34:20.878Z,34.45
2019-04-23T14:41:42.514Z,34.63
2019-04-23T14:44:19.848Z,34.82
2019-04-23T14:49:25.561Z,34.32
2019-04-23T14:51:58.941Z,34.61
2019-04-23T14:57:09.842Z,33.84
2019-04-23T14:59:30.719Z,34.25
2019-04-23T15:02:05.489Z,33.87
2019-04-23T15:04:41.179Z,33.68
2019-04-23T15:07:15.646Z,34.27
2019-04-23T15:09:53.459Z,34.17
2019-04-23T15:12:25.958Z,33.87
2019-04-23T15:14:51.179Z,33.85
2019-04-23T15:17:23.365Z,33.63
2019-04-23T15:20:03.027Z,33.94
2019-04-23T15:25:21.398Z,34.08
2019-04-23T15:28:05.873Z,35.29
2019-04-23T15:29:58.186Z,34.60
2019-04-23T15:32:53.589Z,34.92
2019-04-23T15:35:31.613Z,34.36
2019-04-23T15:38:00.511Z,34.42
2019-04-23T15:40:16.488Z,34.49
2019-04-23T15:42:51.574Z,34.78
2019-04-23T15:45:19.307Z,34.37
2019-04-23T15:47:48.518Z,34.54
2019-04-23T15:50:23.572Z,34.04
2019-04-23T15:55:22.559Z,33.74
2019-04-23T16:00:24.822Z,34.34
2019-04-23T16:02:29.136Z,34.38
2019-04-23T16:05:00.044Z,34.96
2019-04-23T16:07:50.924Z,34.65
2019-04-23T16:10:49.147Z,34.76
2019-04-23T16:13:05.825Z,34.43
2019-04-23T16:15:29.086Z,35.31
2019-04-23T16:18:23.691Z,34.83
2019-04-23T16:23:21.544Z,34.97
2019-04-23T16:25:49.819Z,35.22
2019-04-23T16:28:28.957Z,35.16
2019-04-23T16:31:09.443Z,35.55
2019-04-23T16:33:20.649Z,35.35
2019-04-23T16:36:16.710Z,35.92
2019-04-23T16:38:38.335Z,35.79
2019-04-23T16:41:09.936Z,35.50
2019-04-23T16:43:35.486Z,35.48
2019-04-23T16:48:55.313Z,35.31
2019-04-23T16:53:38.321Z,35.72
2019-04-23T16:56:18.493Z,35.68
2019-04-23T16:58:54.630Z,36.76
2019-04-23T17:01:24.895Z,35.88
2019-04-23T17:04:01.045Z,36.06
2019-04-23T17:06:27.126Z,36.47
2019-04-23T17:08:57.732Z,36.32
2019-04-23T17:11:25.267Z,36.36
2019-04-23T17:14:02.759Z,36.49
2019-04-23T17:19:01.995Z,36.57
2019-04-23T17:21:29.856Z,36.57
2019-04-23T17:24:15.371Z,37.18
2019-04-23T17:26:37.377Z,37.29
2019-04-23T17:34:24.430Z,37.36
2019-04-23T17:37:01.084Z,37.03
2019-04-23T17:40:00.927Z,36.92
2019-04-23T17:48:12.901Z,38.05
2019-04-23T17:53:25.312Z,38.22
2019-04-23T17:56:18.486Z,37.94
2019-04-23T17:58:31.792Z,38.22
2019-04-23T18:01:17.643Z,38.47
2019-04-23T18:03:50.209Z,38.27
2019-04-23T18:06:21.341Z,38.79
2019-04-23T18:13:54.943Z,39.28
2019-04-23T18:16:30.765Z,38.90
2019-04-23T18:21:46.172Z,39.10
2019-04-23T18:27:18.051Z,39.28
2019-04-23T18:37:49.131Z,40.48
2019-04-23T18:40:21.365Z,40.64
2019-04-23T18:42:53.503Z,40.83
2019-04-23T18:45:35.565Z,41.15
2019-04-23T18:48:27.419Z,40.87
2019-04-23T18:53:33.768Z,41.70
2019-04-23T18:56:03.594Z,41.57
2019-04-23T18:58:22.429Z,41.67
2019-04-23T19:04:19.663Z,42.20
2019-04-23T19:06:38.312Z,42.06
2019-04-23T19:10:02.173Z,42.07
2019-04-23T19:12:25.148Z,42.44
2019-04-23T19:17:42.933Z,42.40
2019-04-23T19:20:16.290Z,42.54
2019-04-23T19:22:28.144Z,42.66
2019-04-23T19:24:53.394Z,42.58
2019-04-23T19:27:37.172Z,43.07
2019-04-23T19:38:17.899Z,43.12
2019-04-23T19:43:26.392Z,43.27
2019-04-23T19:46:09.376Z,43.42
2019-04-23T19:48:25.315Z,43.71
2019-04-23T19:51:09.535Z,43.86
2019-04-23T19:53:43.104Z,43.74
2019-04-23T19:56:08.803Z,43.76
2019-04-23T19:58:46.158Z,43.95
2019-04-23T20:11:08.065Z,44.40
2019-04-23T20:21:14.978Z,44.75
2019-04-23T20:24:04.104Z,45.14
2019-04-23T20:34:31.209Z,45.21
2019-04-23T20:36:49.112Z,45.17
2019-04-23T20:39:32.729Z,45.44
2019-04-23T20:42:08.997Z,45.88
2019-04-23T20:44:44.960Z,45.88
2019-04-23T20:49:40.782Z,46.15
2019-04-23T20:52:04.689Z,45.69
2019-04-23T20:54:50.871Z,45.78
2019-04-23T20:57:43.914Z,46.05
2019-04-23T21:05:19.601Z,46.52
2019-04-23T21:07:57.530Z,46.32
2019-04-23T21:10:32.623Z,46.88
2019-04-23T21:13:06.771Z,46.82
2019-04-23T21:31:00.901Z,47.45
2019-04-23T21:33:28.491Z,47.19
2019-04-23T21:36:18.404Z,47.51
2019-04-23T21:39:03.525Z,47.30
2019-04-23T21:49:20.937Z,47.68
2019-04-23T21:51:45.517Z,47.60
2019-04-23T21:53:58.498Z,47.74
2019-04-23T21:56:37.206Z,47.84
2019-04-23T21:59:06.842Z,47.96
2019-04-23T22:01:44.288Z,48.41
2019-04-23T22:04:17.364Z,48.25
2019-04-23T22:06:59.094Z,48.51
2019-04-23T22:09:21.222Z,48.57
2019-04-23T22:11:57.002Z,48.50
2019-04-23T22:14:20.245Z,48.60
2019-04-23T22:24:21.587Z,49.02
2019-04-23T22:26:53.313Z,49.01
2019-04-23T22:29:33.460Z,48.96
2019-04-23T22:32:02.849Z,48.79
2019-04-23T22:34:42.115Z,49.08
2019-04-23T22:37:12.207Z,49.40
2019-04-23T22:39:41.895Z,49.41
2019-04-23T22:47:07.254Z,49.48
2019-04-23T22:50:02.612Z,49.55
2019-04-23T22:55:02.271Z,49.94
2019-04-23T22:57:45.195Z,50.04
2019-04-23T23:00:13.030Z,50.04
2019-04-23T23:02:54.083Z,50.10
2019-04-23T23:05:14.171Z,50.18
2019-04-23T23:07:55.747Z,50.37
2019-04-23T23:10:12.921Z,50.37
2019-04-23T23:12:51.283Z,50.46
2019-04-23T23:15:19.392Z,50.59
2019-04-23T23:18:03.135Z,51.02
2019-04-23T23:20:21.089Z,50.65
2019-04-23T23:23:05.670Z,50.70
2019-04-23T23:27:57.691Z,50.98
2019-04-23T23:30:26.671Z,51.02
2019-04-23T23:32:55.622Z,51.24
2019-04-23T23:38:01.736Z,51.64
2019-04-23T23:40:30.295Z,51.67
2019-04-23T23:45:35.415Z,51.48
2019-04-23T23:50:50.153Z,51.34
2019-04-23T23:55:38.751Z,51.37
2019-04-23T23:58:20.422Z,51.57
